Terminal Aerodrome Forecast
Issued by NWS Sioux Falls, SD

Home | Current Version | Previous Version | Graphics & Text | Print | Product List | Glossary Off
Versions: 1 2 3 4 5 6 7 8 9 10 11 12 13 14 15

000
FTUS43 KFSD 241730
TAFFSD
TAF
KFSD 241730Z 2418/2518 34017G24KT P6SM SCT040
     FM242300 36007KT P6SM BKN100
     FM250600 09010KT 3SM -SN OVC025
     FM250900 08013KT 1SM -SN BR OVC015
     FM251600 06013KT 3SM -SN OVC020=

USA.gov is the U.S. government's official web portal to all federal, state and local government web resources and services.